Time;durP1;ratioP1;P1;durP2;ratioP2;P2;SDS_P1;SDS_P2;PMS_P1;PMS_P2;Temp;Humidity;BMP_temperature;BMP_pressure;BME280_temperature;BME280_humidity;BME280_pressure;Samples;Min_cycle;Max_cycle;Signal;HPM_P1;HPM_P2
2023/06/23 03:54:04;;;;;;;13.57;10.30;;;;;;;22.67;100.00;100256.03;6152756;28;20117;31
2023/06/23 03:57:13;;;;;;;16.73;10.32;;;;;;;22.79;100.00;100247.63;5253129;33;33910;-84
2023/06/23 04:00:21;;;;;;;14.38;9.63;;;;;;;22.87;100.00;100256.22;5254778;33;33879;-84
2023/06/23 04:03:29;;;;;;;14.40;9.70;;;;;;;22.98;100.00;100259.88;5254742;33;33813;-84
2023/06/23 04:06:35;;;;;;;11.55;9.95;;;;;;;23.09;100.00;100258.88;5253628;33;33322;-84
2023/06/23 04:10:01;;;;;;;12.95;9.77;;;;;;;23.17;100.00;100267.72;5254423;33;33813;-84
2023/06/23 04:13:12;;;;;;;13.70;9.93;;;;;;;23.26;100.00;100264.22;5253644;33;33964;-85
2023/06/23 04:16:17;;;;;;;15.33;9.87;;;;;;;23.32;100.00;100273.31;5268640;33;34942;-84
2023/06/23 04:19:32;;;;;;;13.27;9.18;;;;;;;23.37;100.00;100261.50;5256289;33;34464;-84
2023/06/23 04:22:40;;;;;;;12.23;9.10;;;;;;;23.42;100.00;100254.13;5256005;33;33840;-84
2023/06/23 04:25:48;;;;;;;12.32;9.98;;;;;;;23.52;100.00;100262.44;5268851;33;34242;-84
2023/06/23 04:28:55;;;;;;;14.45;9.52;;;;;;;23.61;100.00;100260.00;5259971;33;34387;-84
2023/06/23 04:32:00;;;;;;;12.02;9.10;;;;;;;23.75;100.00;100260.38;5255536;33;33785;-84
2023/06/23 04:35:05;;;;;;;11.77;8.95;;;;;;;23.80;100.00;100249.41;5254783;33;35468;-84
2023/06/23 04:38:17;;;;;;;11.95;9.10;;;;;;;23.86;100.00;100258.50;5253203;33;34664;-84
2023/06/23 04:41:27;;;;;;;13.02;9.32;;;;;;;23.93;100.00;100257.16;5254402;33;33856;-85
2023/06/23 04:44:39;;;;;;;14.60;9.43;;;;;;;23.93;100.00;100267.34;5254000;33;33764;-85
2023/06/23 04:47:46;;;;;;;11.98;9.02;;;;;;;24.07;100.00;100251.97;5253671;33;33797;-84
2023/06/23 04:50:55;;;;;;;12.82;9.20;;;;;;;24.17;100.00;100241.00;5254288;33;34900;-84
2023/06/23 04:54:07;;;;;;;12.88;8.48;;;;;;;24.26;100.00;100232.22;5241512;33;34076;-85
2023/06/23 04:57:32;;;;;;;;;;;;;;;24.28;100.00;100241.84;5236284;34;35540;-84
2023/06/23 05:00:36;;;;;;;12.77;9.00;;;;;;;24.44;100.00;100245.47;5236998;34;34438;-84
2023/06/23 05:03:41;;;;;;;11.15;8.70;;;;;;;24.49;100.00;100242.75;5212669;34;34058;-84
2023/06/23 05:06:47;;;;;;;12.55;8.45;;;;;;;24.58;100.00;100232.00;5236531;34;34724;-84
2023/06/23 05:09:51;;;;;;;12.75;8.65;;;;;;;24.55;100.00;100230.63;5224224;34;34439;-84
2023/06/23 05:13:17;;;;;;;10.23;8.50;;;;;;;24.60;100.00;100233.41;5225758;34;34253;-84
2023/06/23 05:16:23;;;;;;;11.35;8.05;;;;;;;24.78;100.00;100232.03;5237765;34;33900;-84
2023/06/23 05:19:46;;;;;;;11.32;8.32;;;;;;;24.97;100.00;100240.53;5236542;34;33788;-84
2023/06/23 05:22:55;;;;;;;9.80;7.90;;;;;;;25.12;100.00;100243.25;5223987;34;33993;-84
2023/06/23 05:26:03;;;;;;;15.07;8.65;;;;;;;25.21;100.00;100249.06;5236348;34;34175;-88
2023/06/23 05:29:17;;;;;;;8.65;7.75;;;;;;;25.14;100.00;100236.69;5245710;34;34686;-84
2023/06/23 05:32:30;;;;;;;10.82;7.60;;;;;;;25.18;100.00;100244.09;5244740;34;34398;-84
2023/06/23 05:35:40;;;;;;;11.52;7.95;;;;;;;25.24;100.00;100256.81;5238451;34;34741;-85
2023/06/23 05:39:05;;;;;;;10.68;7.80;;;;;;;25.34;100.00;100247.69;5235629;34;34158;-84
2023/06/23 05:42:12;;;;;;;11.05;8.00;;;;;;;25.46;100.00;100245.44;5236813;34;34676;-85
2023/06/23 05:45:17;;;;;;;17.62;8.07;;;;;;;25.61;100.00;100243.75;5235498;34;33990;-84
2023/06/23 05:52:31;;;;;;;9.77;7.25;;;;;;;25.79;100.00;100241.16;5943996;28;20097;-83
2023/06/23 05:55:50;;;;;;;10.70;7.60;;;;;;;25.98;98.39;100237.81;5247239;34;34857;-84
2023/06/23 05:59:08;;;;;;;8.75;7.68;;;;;;;26.08;97.18;100243.28;5220459;34;33663;-84
2023/06/23 06:02:27;;;;;;;13.65;8.48;;;;;;;26.04;98.08;100246.91;5219054;34;34745;-84
2023/06/23 06:05:39;;;;;;;12.15;8.07;;;;;;;26.08;97.53;100239.69;5220792;34;34652;-84
2023/06/23 06:08:44;;;;;;;10.45;8.45;;;;;;;26.26;97.97;100236.25;5233523;34;33864;-84
2023/06/23 06:11:51;;;;;;;10.57;8.25;;;;;;;26.13;96.93;100223.94;5206657;34;34791;-84
2023/06/23 06:15:01;;;;;;;13.38;8.48;;;;;;;26.30;96.23;100220.81;5235306;34;33948;-84
2023/06/23 06:18:12;;;;;;;13.43;8.52;;;;;;;26.41;97.57;100216.84;5245450;34;35693;-87
2023/06/23 06:21:19;;;;;;;11.05;8.20;;;;;;;26.60;94.84;100217.00;5223191;34;34057;-84
2023/06/23 06:24:29;;;;;;;16.05;8.60;;;;;;;26.56;96.02;100202.16;5218047;34;34765;-84
2023/06/23 06:27:34;;;;;;;15.85;8.27;;;;;;;26.78;95.78;100190.63;5218574;34;33863;-84
2023/06/23 06:30:44;;;;;;;12.10;8.95;;;;;;;26.82;94.18;100186.16;5218321;34;33653;-84
2023/06/23 06:33:52;;;;;;;15.80;9.13;;;;;;;26.70;95.22;100191.22;5217113;34;33926;-84
2023/06/23 06:37:01;;;;;;;12.10;8.82;;;;;;;26.85;93.58;100191.12;5218075;34;34482;-84
2023/06/23 06:40:06;;;;;;;13.25;8.98;;;;;;;26.88;97.22;100187.78;5218154;34;33794;-84
2023/06/23 06:43:10;;;;;;;13.25;8.57;;;;;;;27.01;95.52;100183.50;5217973;34;34639;-84
2023/06/23 06:46:17;;;;;;;11.85;8.60;;;;;;;27.12;96.09;100185.03;5217980;34;33731;-84
2023/06/23 06:49:26;;;;;;;11.57;8.80;;;;;;;27.39;91.93;100185.59;5218335;34;33546;-84
2023/06/23 06:52:31;;;;;;;14.98;9.20;;;;;;;27.49;93.03;100193.75;5216694;34;33481;-84
2023/06/23 06:56:07;;;;;;;11.23;8.85;;;;;;;27.40;91.39;100184.47;5226416;34;33870;-84
2023/06/23 06:59:15;;;;;;;12.18;8.65;;;;;;;27.52;91.18;100182.09;5237217;34;34318;-84
2023/06/23 07:02:39;;;;;;;10.73;9.00;;;;;;;27.69;91.14;100174.12;5226475;34;34101;-84
2023/06/23 07:06:01;;;;;;;14.50;9.45;;;;;;;27.89;91.20;100166.72;5237345;34;34733;-85
2023/06/23 07:09:12;;;;;;;13.65;9.50;;;;;;;27.96;90.86;100167.16;5225410;34;33730;-84
2023/06/23 07:12:35;;;;;;;15.90;9.90;;;;;;;28.01;87.43;100169.84;5217392;34;34072;-84
2023/06/23 07:15:41;;;;;;;15.48;9.82;;;;;;;28.07;88.79;100170.59;5225462;34;33541;-84
2023/06/23 07:18:46;;;;;;;15.98;10.07;;;;;;;28.08;88.77;100177.78;5214418;34;34750;-84
2023/06/23 07:21:53;;;;;;;16.85;9.68;;;;;;;28.12;89.24;100173.31;5225743;34;34643;-85
2023/06/23 07:24:59;;;;;;;18.40;10.25;;;;;;;28.36;88.68;100176.78;5214116;34;34759;-85
2023/06/23 07:28:02;;;;;;;14.45;9.60;;;;;;;28.52;86.82;100179.31;5213222;34;34736;-85
2023/06/23 07:31:11;;;;;;;15.00;10.32;;;;;;;28.61;86.00;100175.59;5239322;34;33894;-85
2023/06/23 07:34:15;;;;;;;13.80;9.60;;;;;;;28.61;85.25;100172.81;5225159;34;34658;-85
2023/06/23 07:37:20;;;;;;;14.75;10.45;;;;;;;28.58;86.99;100180.88;5226540;34;33548;-84
2023/06/23 07:40:28;;;;;;;18.40;10.00;;;;;;;28.67;84.06;100177.13;5238900;34;34650;-85
2023/06/23 07:43:43;;;;;;;15.27;10.30;;;;;;;28.77;86.81;100178.09;5239690;34;33545;-85
2023/06/23 07:47:06;;;;;;;15.65;10.73;;;;;;;29.03;85.36;100178.47;5228758;34;35085;-84
2023/06/23 07:50:11;;;;;;;14.85;10.13;;;;;;;29.17;84.42;100170.16;5239595;34;33920;-85
2023/06/23 07:53:16;;;;;;;14.87;10.20;;;;;;;29.09;84.36;100164.19;5239949;34;34086;-84
2023/06/23 07:56:23;;;;;;;12.85;9.90;;;;;;;29.31;84.34;100166.28;5227602;34;34671;-85
2023/06/23 07:59:37;;;;;;;14.80;10.23;;;;;;;29.53;82.70;100178.56;5240303;34;34107;-89
2023/06/23 08:02:41;;;;;;;15.20;10.10;;;;;;;29.61;82.73;100170.34;5226915;34;34177;-89
2023/06/23 08:05:45;;;;;;;16.20;10.07;;;;;;;29.83;81.24;100157.69;5239092;34;34298;-88
2023/06/23 08:08:51;;;;;;;13.82;10.45;;;;;;;29.90;81.89;100162.84;5226887;34;34150;-85
2023/06/23 08:11:56;;;;;;;14.75;10.43;;;;;;;29.93;81.77;100163.03;5239294;34;33888;-85
2023/06/23 08:15:18;;;;;;;13.70;10.05;;;;;;;29.87;81.31;100160.69;5228411;34;34099;-84
2023/06/23 08:18:27;;;;;;;16.05;10.43;;;;;;;30.04;82.51;100158.87;5226827;34;35709;-85
2023/06/23 08:21:36;;;;;;;15.55;10.15;;;;;;;30.04;79.81;100164.44;5243347;33;34837;-84
2023/06/23 08:24:43;;;;;;;15.15;10.68;;;;;;;30.14;79.63;100157.00;5243711;33;34396;-85
2023/06/23 08:28:05;;;;;;;16.90;10.57;;;;;;;30.16;78.85;100154.69;5226108;33;35110;-85
2023/06/23 08:31:11;;;;;;;14.75;10.38;;;;;;;30.47;78.22;100160.38;5257718;33;33770;-85
2023/06/23 08:34:14;;;;;;;15.90;10.80;;;;;;;30.59;77.39;100159.78;5254642;33;35322;-85
2023/06/23 08:37:32;;;;;;;14.85;10.35;;;;;;;30.79;76.58;100152.91;5244993;33;33406;-85
2023/06/23 08:40:56;;;;;;;15.98;10.85;;;;;;;30.96;73.83;100150.22;5225939;33;34418;-84
2023/06/23 08:44:24;;;;;;;20.08;11.30;;;;;;;30.84;75.05;100153.59;5235506;33;34284;-85
2023/06/23 08:47:41;;;;;;;16.60;11.15;;;;;;;30.95;73.72;100148.59;5255099;33;33906;-88
2023/06/23 08:50:49;;;;;;;16.75;10.50;;;;;;;31.04;76.04;100152.22;5253613;33;34790;-85
2023/06/23 08:53:55;;;;;;;14.98;10.63;;;;;;;31.09;74.65;100148.47;5230198;33;33932;-84
2023/06/23 08:56:58;;;;;;;17.90;11.45;;;;;;;31.53;72.78;100152.22;5241341;33;35092;-85
2023/06/23 09:00:21;;;;;;;15.70;11.07;;;;;;;31.61;73.27;100152.25;5244789;33;35039;-85
2023/06/23 09:03:44;;;;;;;17.15;10.35;;;;;;;31.66;70.07;100150.47;5231128;34;33907;-84
2023/06/23 09:06:54;;;;;;;14.27;10.82;;;;;;;31.66;71.28;100150.47;5227367;34;34785;-84
2023/06/23 09:10:19;;;;;;;18.33;11.10;;;;;;;31.87;71.43;100154.25;5256706;33;32331;-84
2023/06/23 09:13:29;;;;;;;17.00;11.63;;;;;;;31.81;71.08;100148.03;5249557;33;33787;-84
2023/06/23 09:16:34;;;;;;;15.00;10.63;;;;;;;31.85;70.90;100145.41;5255878;33;33691;-84
2023/06/23 09:19:38;;;;;;;17.45;10.32;;;;;;;32.11;70.75;100150.19;5254045;33;34117;-84
2023/06/23 09:22:42;;;;;;;19.00;10.15;;;;;;;32.18;67.86;100153.34;5252512;33;33920;-84
2023/06/23 09:25:49;;;;;;;17.05;10.30;;;;;;;32.17;68.18;100157.25;5241313;33;34316;-84
2023/06/23 09:28:52;;;;;;;20.80;10.60;;;;;;;32.02;68.22;100161.34;5242938;33;33699;-84
2023/06/23 09:31:55;;;;;;;18.87;9.65;;;;;;;32.19;67.61;100161.34;5254365;33;34815;-84
2023/06/23 09:34:59;;;;;;;13.18;10.18;;;;;;;32.33;67.45;100160.38;5255228;33;33517;-84
2023/06/23 09:38:02;;;;;;;19.83;10.45;;;;;;;32.38;66.93;100160.16;5242171;33;33943;-84
2023/06/23 09:41:14;;;;;;;15.60;10.10;;;;;;;32.50;68.01;100163.16;5241665;33;33793;-84
2023/06/23 09:44:16;;;;;;;12.18;9.70;;;;;;;32.60;68.15;100160.00;5242260;33;33787;-89
2023/06/23 09:47:19;;;;;;;17.10;10.63;;;;;;;32.67;66.46;100165.06;5241793;33;33908;-89
2023/06/23 09:50:22;;;;;;;14.27;9.85;;;;;;;33.04;66.37;100160.72;5252937;33;34051;-89
2023/06/23 09:53:25;;;;;;;13.43;10.23;;;;;;;33.33;63.16;100165.53;5241486;33;33683;-85
2023/06/23 09:56:28;;;;;;;14.00;9.95;;;;;;;33.63;65.78;100155.19;5240623;33;33878;-85
2023/06/23 09:59:31;;;;;;;13.62;9.35;;;;;;;34.07;61.40;100164.09;5243975;33;33994;-84
2023/06/23 10:02:41;;;;;;;17.50;10.80;;;;;;;34.50;60.98;100162.87;5253837;33;34405;-85
2023/06/23 10:05:44;;;;;;;16.58;9.48;;;;;;;34.44;60.06;100167.06;5254015;33;34152;-85
2023/06/23 10:08:46;;;;;;;12.65;9.50;;;;;;;34.74;59.02;100170.56;5229151;33;33880;-84
2023/06/23 10:11:50;;;;;;;14.68;9.70;;;;;;;35.02;56.86;100171.91;5240460;33;33581;-85
2023/06/23 10:14:55;;;;;;;18.35;9.68;;;;;;;35.09;56.73;100164.59;5255778;33;33804;-85
2023/06/23 10:17:59;;;;;;;15.38;9.75;;;;;;;35.69;55.13;100161.31;5258874;33;33708;-85
2023/06/23 10:21:02;;;;;;;17.33;9.48;;;;;;;35.65;56.26;100152.81;5240149;33;34953;-85
2023/06/23 10:24:09;;;;;;;13.55;9.30;;;;;;;35.64;54.77;100146.41;5239863;33;33911;-84
2023/06/23 10:27:19;;;;;;;15.52;9.18;;;;;;;35.78;51.96;100151.63;5253280;33;33604;-84
2023/06/23 10:30:24;;;;;;;15.73;8.73;;;;;;;35.57;50.35;100153.75;5252682;33;33359;-84
2023/06/23 10:33:27;;;;;;;17.70;9.18;;;;;;;36.21;50.35;100157.69;5252343;33;34704;-84
2023/06/23 10:36:35;;;;;;;15.07;8.90;;;;;;;36.52;48.12;100145.81;5246462;33;33824;-84
2023/06/23 10:39:43;;;;;;;21.00;8.90;;;;;;;36.70;47.87;100141.47;5223115;34;33948;-84
2023/06/23 10:42:51;;;;;;;14.80;9.48;;;;;;;37.07;46.17;100148.87;5239672;34;34804;-84
2023/06/23 10:45:54;;;;;;;19.40;9.30;;;;;;;36.66;48.23;100146.19;5217971;34;34128;-84
2023/06/23 10:48:57;;;;;;;16.37;10.02;;;;;;;36.71;48.15;100151.53;5222841;34;33775;-84
2023/06/23 10:52:01;;;;;;;15.63;11.20;;;;;;;35.58;50.24;100144.19;5235011;34;33906;-84
2023/06/23 10:55:35;;;;;;;15.98;11.00;;;;;;;34.90;53.13;100139.13;5234738;34;33965;-84
2023/06/23 10:58:51;;;;;;;19.37;10.85;;;;;;;34.95;53.68;100139.69;5235518;34;35055;-84
2023/06/23 11:02:00;;;;;;;14.90;10.52;;;;;;;35.94;50.72;100132.06;5236025;34;34233;-84
2023/06/23 11:05:04;;;;;;;16.35;10.13;;;;;;;37.10;50.47;100122.88;5235698;34;34081;-88
2023/06/23 11:08:12;;;;;;;13.48;9.60;;;;;;;37.29;46.89;100122.94;5235869;34;34074;-87
2023/06/23 11:11:15;;;;;;;14.48;10.00;;;;;;;37.95;47.58;100117.63;5235962;34;33991;-85
2023/06/23 11:14:19;;;;;;;13.43;10.00;;;;;;;38.45;43.63;100110.22;5237300;34;33851;-85
2023/06/23 11:17:22;;;;;;;13.95;9.88;;;;;;;38.49;44.03;100111.87;5248088;34;33745;-84
2023/06/23 11:20:25;;;;;;;17.48;9.70;;;;;;;38.53;41.87;100103.53;5231439;34;34115;-84
2023/06/23 11:23:27;;;;;;;17.33;10.35;;;;;;;38.17;42.46;100104.81;5235340;34;33931;-84
2023/06/23 11:26:30;;;;;;;16.02;9.85;;;;;;;38.17;42.12;100107.63;5222849;34;33921;-84
2023/06/23 11:29:33;;;;;;;20.35;9.68;;;;;;;39.15;42.65;100100.59;5238113;33;34667;-84
2023/06/23 11:32:36;;;;;;;13.55;9.13;;;;;;;39.92;42.41;100095.66;5239788;33;34265;-85
2023/06/23 11:35:39;;;;;;;19.77;10.52;;;;;;;39.69;39.91;100088.09;5252491;33;34766;-85
2023/06/23 11:38:44;;;;;;;14.38;10.02;;;;;;;38.63;40.96;100099.28;5252884;33;33930;-84
2023/06/23 11:41:46;;;;;;;13.48;9.27;;;;;;;39.47;40.42;100103.09;5253369;33;34805;-85
2023/06/23 11:44:53;;;;;;;12.48;8.95;;;;;;;39.83;40.00;100093.94;5231447;33;34436;-85
2023/06/23 11:47:56;;;;;;;16.20;9.60;;;;;;;40.25;36.80;100081.59;5243551;33;34553;-85
2023/06/23 11:50:59;;;;;;;15.90;10.20;;;;;;;40.54;36.83;100081.84;5231198;33;35224;-85
2023/06/23 11:54:03;;;;;;;16.23;9.73;;;;;;;41.07;37.27;100075.09;5232536;33;33923;-85
2023/06/23 11:57:07;;;;;;;15.73;9.65;;;;;;;40.94;35.38;100078.19;5255228;33;33804;-85
2023/06/23 12:00:11;;;;;;;15.88;9.77;;;;;;;39.88;37.45;100073.06;5242652;33;35004;-85
2023/06/23 12:03:16;;;;;;;22.60;10.20;;;;;;;40.84;36.10;100066.81;5251817;33;33751;-85
2023/06/23 12:06:22;;;;;;;15.80;9.35;;;;;;;41.85;37.93;100067.06;5238308;34;33929;-85
2023/06/23 12:09:30;;;;;;;13.23;8.93;;;;;;;42.86;32.54;100059.62;5234952;34;34379;-85
2023/06/23 12:12:32;;;;;;;12.10;9.30;;;;;;;42.68;33.70;100055.94;5238767;34;34157;-85
2023/06/23 12:15:37;;;;;;;18.12;10.13;;;;;;;41.43;35.85;100051.50;5234108;34;33686;-84
2023/06/23 12:18:48;;;;;;;14.95;9.75;;;;;;;41.54;34.94;100050.78;5216062;34;33778;-85
2023/06/23 12:21:51;;;;;;;12.02;9.10;;;;;;;42.07;34.46;100045.34;5225269;34;34354;-85
2023/06/23 12:24:57;;;;;;;17.00;9.57;;;;;;;40.97;36.63;100037.88;5213421;34;34797;-85
2023/06/23 12:28:05;;;;;;;13.75;9.25;;;;;;;41.87;36.78;100035.56;5237127;34;35536;-85
2023/06/23 12:31:08;;;;;;;13.68;8.30;;;;;;;42.80;33.99;100038.59;5237963;34;34737;-85
2023/06/23 12:34:14;;;;;;;18.85;8.88;;;;;;;43.72;32.03;100031.09;5240828;33;34659;-84
2023/06/23 12:37:18;;;;;;;13.23;8.75;;;;;;;43.00;32.58;100031.28;5230638;33;33380;-85
2023/06/23 12:40:32;;;;;;;12.02;8.50;;;;;;;42.27;34.14;100033.66;5254002;33;33744;-85
2023/06/23 12:43:34;;;;;;;15.25;9.10;;;;;;;42.50;33.19;100031.28;5241576;33;33542;-89
2023/06/23 12:46:38;;;;;;;13.52;7.85;;;;;;;43.81;31.22;100028.59;5241925;33;33940;-89
2023/06/23 12:49:41;;;;;;;14.05;8.63;;;;;;;44.34;30.52;100023.87;5254277;33;33909;-86
2023/06/23 12:52:44;;;;;;;15.55;8.57;;;;;;;44.82;29.32;100020.25;5240433;33;34753;-85
2023/06/23 12:55:47;;;;;;;11.20;8.13;;;;;;;44.82;28.60;100023.09;5230254;33;33872;-85
2023/06/23 12:58:50;;;;;;;13.25;8.20;;;;;;;43.55;30.94;100015.75;5241456;33;35160;-85
2023/06/23 13:01:53;;;;;;;10.18;7.97;;;;;;;42.28;33.00;100026.78;5241528;33;34610;-85
2023/06/23 13:04:56;;;;;;;11.65;7.87;;;;;;;40.85;35.71;100026.09;5254426;33;33997;-85
2023/06/23 13:08:00;;;;;;;11.38;8.20;;;;;;;42.69;32.60;100015.09;5241657;33;33755;-85
2023/06/23 13:11:03;;;;;;;11.90;8.40;;;;;;;43.66;31.77;100018.56;5239522;33;33830;-85
2023/06/23 13:14:06;;;;;;;15.98;8.02;;;;;;;43.65;31.09;100031.94;5239828;33;33733;-85
2023/06/23 13:17:12;;;;;;;12.20;7.72;;;;;;;42.74;33.00;100034.56;5225793;34;34652;-85
2023/06/23 13:20:14;;;;;;;18.33;9.00;;;;;;;41.61;35.03;100034.66;5236836;34;33505;-85
2023/06/23 13:23:18;;;;;;;16.12;8.27;;;;;;;42.02;34.78;100031.59;5236925;33;33804;-85
2023/06/23 13:26:20;;;;;;;13.38;8.10;;;;;;;43.33;31.95;100023.53;5252377;33;34788;-85
2023/06/23 13:29:23;;;;;;;14.20;8.60;;;;;;;44.79;29.55;100021.88;5240832;33;33891;-85
2023/06/23 13:32:26;;;;;;;14.87;8.00;;;;;;;44.85;29.72;100012.91;5230031;33;35657;-85
2023/06/23 13:35:29;;;;;;;11.43;8.02;;;;;;;46.10;28.05;100026.44;5230086;33;33934;-85
2023/06/23 13:38:33;;;;;;;11.85;7.95;;;;;;;46.26;28.28;100017.25;5241768;33;34445;-85
2023/06/23 13:41:36;;;;;;;12.50;7.22;;;;;;;44.69;29.71;100024.78;5241121;33;33809;-85
2023/06/23 13:44:39;;;;;;;11.18;7.60;;;;;;;43.00;32.51;100030.44;5236963;33;32506;-85
2023/06/23 13:47:44;;;;;;;14.20;7.93;;;;;;;42.23;32.53;100028.00;5245842;33;33808;-85
2023/06/23 13:50:47;;;;;;;11.15;7.78;;;;;;;43.87;31.16;100034.66;5240472;33;33803;-85
2023/06/23 13:53:50;;;;;;;12.80;7.45;;;;;;;42.56;31.83;100041.00;5239945;33;35011;-85
2023/06/23 13:56:53;;;;;;;11.63;7.30;;;;;;;41.38;34.10;100051.06;5237853;33;34563;-85
2023/06/23 13:59:56;;;;;;;10.98;7.95;;;;;;;39.61;37.20;100035.69;5269658;33;33985;-85
2023/06/23 14:02:59;;;;;;;13.62;7.72;;;;;;;39.01;38.83;100040.03;5252460;33;34327;-85
2023/06/23 14:06:03;;;;;;;11.45;7.57;;;;;;;38.81;39.38;100032.84;5240588;33;33919;-84
2023/06/23 14:09:07;;;;;;;12.50;6.75;;;;;;;37.80;40.93;100044.25;5239651;33;35119;-84
2023/06/23 14:12:10;;;;;;;12.10;6.70;;;;;;;36.94;42.74;100044.25;5249069;33;33874;-85
2023/06/23 14:15:13;;;;;;;13.00;6.55;;;;;;;36.02;44.04;100037.84;5238962;33;33877;-84
2023/06/23 14:18:16;;;;;;;9.27;6.03;;;;;;;35.79;44.39;100044.00;5252067;33;33892;-84
2023/06/23 14:21:19;;;;;;;9.98;6.12;;;;;;;35.61;44.72;100043.47;5253681;33;33454;-84
2023/06/23 14:24:23;;;;;;;8.63;5.43;;;;;;;35.01;45.74;100038.75;5253649;33;34702;-84
2023/06/23 14:27:26;;;;;;;9.43;5.47;;;;;;;35.02;45.19;100035.62;5252271;33;33557;-84
2023/06/23 14:30:29;;;;;;;7.18;5.00;;;;;;;35.31;45.04;100036.56;5223379;34;33401;-84
2023/06/23 14:33:31;;;;;;;11.63;4.93;;;;;;;35.23;44.87;100045.88;5228630;33;34164;-84
2023/06/23 14:36:36;;;;;;;10.15;4.70;;;;;;;34.88;44.81;100043.53;5229766;33;34468;-84
2023/06/23 14:39:38;;;;;;;13.10;4.32;;;;;;;35.22;44.04;100050.69;5239209;33;33849;-84
2023/06/23 14:42:42;;;;;;;10.27;4.30;;;;;;;35.03;43.99;100044.81;5239680;33;34855;-84
2023/06/23 14:45:51;;;;;;;9.73;4.47;;;;;;;34.61;44.84;100047.84;5233469;33;231340;-84
2023/06/23 14:48:54;;;;;;;9.15;4.20;;;;;;;34.53;44.79;100046.75;5253242;33;33416;-84
2023/06/23 14:51:57;;;;;;;10.82;4.07;;;;;;;34.23;45.93;100040.53;5251981;33;33826;-84
2023/06/23 14:55:00;;;;;;;11.05;4.35;;;;;;;34.02;44.74;100038.56;5240126;33;34436;-83
2023/06/23 14:58:04;;;;;;;12.55;4.53;;;;;;;33.23;45.56;100033.94;5223400;34;34654;-84
2023/06/23 15:01:07;;;;;;;9.48;4.50;;;;;;;33.08;46.49;100033.37;5235319;34;33832;-88
2023/06/23 15:04:09;;;;;;;9.30;4.57;;;;;;;32.86;46.89;100022.50;5229203;34;33916;-87
2023/06/23 15:07:12;;;;;;;11.07;4.62;;;;;;;33.00;47.60;100014.72;5250629;34;34763;-88
2023/06/23 15:10:16;;;;;;;8.48;4.30;;;;;;;33.06;47.07;100010.59;5238866;34;35423;-85
2023/06/23 15:13:19;;;;;;;11.70;4.20;;;;;;;32.91;47.81;100011.16;5234737;34;33570;-84
2023/06/23 15:16:22;;;;;;;7.50;4.03;;;;;;;32.55;47.97;100001.31;5236246;34;33800;-84
2023/06/23 15:19:25;;;;;;;9.20;3.97;;;;;;;32.11;49.70;99995.03;5225194;34;33354;-84
2023/06/23 15:22:27;;;;;;;11.23;4.00;;;;;;;32.08;49.25;99992.91;5237378;34;33548;-84
2023/06/23 15:25:31;;;;;;;6.47;3.95;;;;;;;31.80;49.41;99995.25;5232699;33;34002;-84
2023/06/23 15:28:35;;;;;;;7.05;3.70;;;;;;;31.69;49.33;99994.75;5256729;33;33861;-84
2023/06/23 15:31:38;;;;;;;5.47;3.45;;;;;;;31.53;49.30;99990.84;5255230;33;34297;-84
2023/06/23 15:34:41;;;;;;;5.65;3.35;;;;;;;31.35;49.99;99995.59;5242491;33;34573;-84
2023/06/23 15:37:44;;;;;;;8.38;3.70;;;;;;;31.39;49.51;100008.53;5242483;33;33821;-84
2023/06/23 15:40:47;;;;;;;8.55;3.55;;;;;;;31.58;49.13;100010.97;5243189;33;33416;-84
2023/06/23 15:43:50;;;;;;;6.18;3.37;;;;;;;31.58;48.91;100012.94;5255726;33;34469;-83
2023/06/23 15:46:52;;;;;;;10.07;3.08;;;;;;;31.76;49.16;100003.44;5231588;33;33594;-84
2023/06/23 15:49:55;;;;;;;6.80;3.25;;;;;;;31.80;49.24;100009.19;5242635;33;34893;-84
